createdAt,value
2022-12-20T00:00:30.944Z,49.59
2022-12-20T00:01:31.026Z,49.21
2022-12-20T00:02:31.088Z,56.56
2022-12-20T00:03:30.919Z,50.72
2022-12-20T00:04:30.932Z,54.51
2022-12-20T00:05:30.889Z,48.90
2022-12-20T00:06:30.904Z,52.10
2022-12-20T00:07:30.874Z,49.55
2022-12-20T00:08:31.882Z,63.28
2022-12-20T00:09:30.875Z,53.08
2022-12-20T00:10:30.859Z,55.55
2022-12-20T00:11:30.859Z,65.77
2022-12-20T00:12:30.823Z,50.98
2022-12-20T00:13:30.820Z,52.97
2022-12-20T00:14:30.848Z,51.81
2022-12-20T00:15:30.803Z,64.45
2022-12-20T00:16:30.776Z,54.92
2022-12-20T00:17:30.808Z,51.18
2022-12-20T00:18:30.762Z,55.22
2022-12-20T00:19:30.766Z,52.02
2022-12-20T00:20:30.754Z,46.82
2022-12-20T00:21:30.730Z,48.47
2022-12-20T00:22:30.709Z,52.57
2022-12-20T00:23:30.717Z,51.05
2022-12-20T00:24:30.721Z,50.26
2022-12-20T00:25:30.684Z,55.13
2022-12-20T00:26:30.684Z,49.38
2022-12-20T00:27:30.676Z,45.91
2022-12-20T00:28:30.677Z,46.32
2022-12-20T00:29:30.689Z,61.65
2022-12-20T00:30:30.656Z,51.84
2022-12-20T00:31:30.676Z,47.21
2022-12-20T00:32:30.631Z,48.58
2022-12-20T00:33:30.619Z,63.53
2022-12-20T00:34:30.616Z,48.91
2022-12-20T00:35:30.592Z,47.02
2022-12-20T00:36:30.586Z,48.10
2022-12-20T00:37:30.629Z,49.50
2022-12-20T00:38:31.645Z,49.88
2022-12-20T00:39:30.571Z,63.87
2022-12-20T00:40:30.551Z,50.65
2022-12-20T00:41:30.531Z,53.81
2022-12-20T00:42:30.526Z,48.25
2022-12-20T00:43:30.525Z,64.96
2022-12-20T00:44:30.545Z,60.38
2022-12-20T00:45:30.501Z,51.09
2022-12-20T00:46:30.515Z,46.23
2022-12-20T00:47:30.473Z,46.52
2022-12-20T00:48:30.459Z,46.19
2022-12-20T00:49:30.489Z,47.43
2022-12-20T00:50:30.442Z,52.41
2022-12-20T00:51:30.450Z,52.73
2022-12-20T00:52:30.419Z,48.08
2022-12-20T00:53:30.496Z,48.73
2022-12-20T00:54:30.414Z,48.88
2022-12-20T00:55:30.397Z,52.26
2022-12-20T00:56:30.416Z,51.28
2022-12-20T00:57:30.378Z,55.26
2022-12-20T00:58:30.369Z,54.79
2022-12-20T00:59:30.360Z,52.35
2022-12-20T01:00:30.347Z,48.84
2022-12-20T01:01:30.629Z,49.21
2022-12-20T01:02:30.488Z,49.18
2022-12-20T01:03:30.353Z,52.25
2022-12-20T01:04:30.318Z,54.30
2022-12-20T01:05:30.305Z,57.06
2022-12-20T01:06:30.303Z,50.83
2022-12-20T01:07:30.275Z,52.32
2022-12-20T01:08:30.281Z,48.88
2022-12-20T01:09:30.271Z,51.76
2022-12-20T01:10:31.249Z,49.75
2022-12-20T01:11:30.235Z,49.21
2022-12-20T01:12:30.302Z,49.85
2022-12-20T01:13:30.236Z,61.47
2022-12-20T01:14:30.210Z,50.41
2022-12-20T01:15:30.207Z,51.23
2022-12-20T01:16:30.248Z,64.09
2022-12-20T01:17:30.205Z,52.84
2022-12-20T01:18:30.191Z,56.46
2022-12-20T01:19:30.188Z,53.90
2022-12-20T01:20:30.177Z,48.36
2022-12-20T01:21:30.132Z,48.88
2022-12-20T01:22:30.145Z,66.33
2022-12-20T01:23:30.118Z,53.78
2022-12-20T01:24:30.108Z,48.15
2022-12-20T01:25:30.128Z,50.37
2022-12-20T01:26:30.087Z,46.87
2022-12-20T01:27:30.083Z,48.43
2022-12-20T01:28:30.086Z,48.48
2022-12-20T01:29:30.082Z,53.64
2022-12-20T01:30:30.074Z,53.97
2022-12-20T01:31:30.185Z,52.15
2022-12-20T01:32:30.028Z,49.10
2022-12-20T01:33:31.029Z,62.50
2022-12-20T01:34:30.026Z,48.54
2022-12-20T01:35:30.014Z,52.68
2022-12-20T01:36:30.010Z,49.30
2022-12-20T01:37:29.981Z,52.31
2022-12-20T01:38:30.001Z,47.14
2022-12-20T01:39:29.979Z,49.60
2022-12-20T01:40:29.958Z,47.66
2022-12-20T01:41:29.964Z,64.03
2022-12-20T01:42:29.949Z,55.12
2022-12-20T01:43:29.970Z,52.35
2022-12-20T01:44:29.929Z,49.21
2022-12-20T01:45:29.954Z,49.73
2022-12-20T01:46:30.029Z,55.32
2022-12-20T01:47:29.919Z,50.82
2022-12-20T01:48:29.902Z,52.17
2022-12-20T01:49:29.883Z,50.19
2022-12-20T01:50:29.883Z,46.82
2022-12-20T01:51:29.852Z,45.88
2022-12-20T01:52:29.885Z,61.99
2022-12-20T01:53:29.844Z,52.63
2022-12-20T01:54:29.833Z,50.63
2022-12-20T01:55:29.860Z,46.52
2022-12-20T01:56:29.801Z,45.99
2022-12-20T01:57:29.800Z,50.64
2022-12-20T01:58:29.831Z,52.01
2022-12-20T01:59:29.778Z,61.06
2022-12-20T02:00:29.775Z,45.64
2022-12-20T02:01:29.918Z,46.87
2022-12-20T02:02:29.821Z,50.95
2022-12-20T02:03:29.779Z,45.60
2022-12-20T02:04:29.729Z,49.33
2022-12-20T02:05:29.746Z,46.48
2022-12-20T02:06:29.719Z,63.44
2022-12-20T02:07:29.703Z,49.79
2022-12-20T02:08:29.708Z,51.69
2022-12-20T02:09:29.686Z,52.37
2022-12-20T02:10:29.673Z,47.63
2022-12-20T02:11:29.661Z,49.92
2022-12-20T02:12:29.648Z,48.65
2022-12-20T02:13:29.659Z,51.28
2022-12-20T02:14:29.635Z,53.61
2022-12-20T02:15:29.617Z,55.72
2022-12-20T02:16:29.654Z,47.47
2022-12-20T02:17:29.600Z,53.71
2022-12-20T02:18:29.604Z,52.65
2022-12-20T02:19:29.593Z,53.13
2022-12-20T02:20:29.601Z,62.41
2022-12-20T02:21:29.568Z,56.70
2022-12-20T02:22:29.547Z,51.04
2022-12-20T02:23:29.537Z,54.68
2022-12-20T02:24:29.541Z,55.75
2022-12-20T02:25:29.546Z,54.70
2022-12-20T02:26:29.516Z,61.39
2022-12-20T02:27:29.496Z,54.64
2022-12-20T02:28:29.502Z,53.60
2022-12-20T02:29:30.518Z,49.06
2022-12-20T02:30:29.464Z,53.12
2022-12-20T02:31:29.482Z,60.41
2022-12-20T02:32:29.491Z,49.42
2022-12-20T02:33:29.466Z,47.27
2022-12-20T02:34:29.435Z,50.40
2022-12-20T02:35:29.412Z,50.27
2022-12-20T02:36:29.444Z,49.87
2022-12-20T02:37:29.392Z,48.64
2022-12-20T02:38:29.381Z,48.66
2022-12-20T02:39:29.368Z,49.91
2022-12-20T02:40:29.373Z,55.33
2022-12-20T02:41:29.376Z,51.56
2022-12-20T02:42:29.348Z,46.50
2022-12-20T02:43:29.371Z,47.56
2022-12-20T02:44:29.361Z,48.03
2022-12-20T02:45:29.361Z,47.74
2022-12-20T02:46:29.401Z,48.19
2022-12-20T02:47:29.302Z,50.60
2022-12-20T02:48:29.280Z,58.41
2022-12-20T02:49:29.289Z,53.60
2022-12-20T02:50:29.270Z,51.57
2022-12-20T02:51:29.286Z,53.46
2022-12-20T02:52:29.277Z,50.33
2022-12-20T02:53:29.263Z,57.50
2022-12-20T02:54:29.258Z,49.31
2022-12-20T02:55:29.227Z,51.61
2022-12-20T02:56:29.217Z,48.64
2022-12-20T02:57:29.242Z,52.07
2022-12-20T02:58:29.195Z,67.45
2022-12-20T02:59:29.222Z,56.49
2022-12-20T03:00:29.160Z,56.16
2022-12-20T03:01:29.280Z,53.82
2022-12-20T03:02:29.274Z,52.43
2022-12-20T03:03:29.241Z,54.30
2022-12-20T03:04:29.176Z,52.91
2022-12-20T03:05:29.158Z,51.20
2022-12-20T03:06:29.097Z,60.85
2022-12-20T03:07:29.109Z,58.56
2022-12-20T03:08:29.091Z,55.97
2022-12-20T03:09:29.097Z,53.26
2022-12-20T03:10:29.159Z,51.55
2022-12-20T03:11:29.052Z,54.70
2022-12-20T03:12:29.054Z,52.89
2022-12-20T03:13:29.053Z,52.55
2022-12-20T03:14:29.017Z,62.88
2022-12-20T03:15:29.015Z,50.05
2022-12-20T03:16:29.068Z,47.73
2022-12-20T03:17:29.020Z,65.13
2022-12-20T03:18:28.994Z,57.99
2022-12-20T03:20:00.926Z,56.41
2022-12-20T03:20:28.970Z,58.07
2022-12-20T03:21:28.967Z,53.60
2022-12-20T03:22:28.952Z,48.07
2022-12-20T03:23:28.959Z,57.01
2022-12-20T03:24:28.926Z,59.23
2022-12-20T03:25:28.970Z,63.77
2022-12-20T03:26:28.908Z,54.30
2022-12-20T03:27:28.915Z,55.41
2022-12-20T03:28:28.897Z,52.92
2022-12-20T03:29:28.909Z,53.84
2022-12-20T03:30:28.911Z,51.04
2022-12-20T03:31:28.936Z,63.48
2022-12-20T03:32:28.863Z,53.50
2022-12-20T03:33:28.887Z,54.49
2022-12-20T03:34:28.829Z,54.25
2022-12-20T03:35:28.822Z,51.42
2022-12-20T03:36:28.817Z,52.79
2022-12-20T03:37:28.800Z,60.47
2022-12-20T03:38:28.840Z,67.89
2022-12-20T03:39:28.773Z,53.02
2022-12-20T03:40:28.782Z,55.49
2022-12-20T03:41:28.765Z,53.92
2022-12-20T03:42:28.764Z,54.12
2022-12-20T03:43:28.790Z,52.63
2022-12-20T03:44:28.799Z,51.17
2022-12-20T03:45:28.725Z,56.99
2022-12-20T03:46:28.833Z,64.31
2022-12-20T03:47:28.717Z,55.28
2022-12-20T03:48:28.720Z,55.44
2022-12-20T03:49:28.754Z,64.31
2022-12-20T03:50:28.683Z,55.54
2022-12-20T03:51:28.684Z,56.23
2022-12-20T03:52:28.656Z,64.62
2022-12-20T03:53:28.652Z,56.93
2022-12-20T03:54:28.680Z,58.37
2022-12-20T03:55:28.623Z,64.24
2022-12-20T03:56:28.622Z,55.02
2022-12-20T03:57:28.625Z,58.23
2022-12-20T03:58:28.603Z,58.61
2022-12-20T03:59:28.592Z,52.34
2022-12-20T04:00:28.574Z,53.65
2022-12-20T04:01:28.701Z,54.44
2022-12-20T04:02:28.739Z,57.90
2022-12-20T04:03:28.663Z,59.12
2022-12-20T04:04:28.555Z,58.56
2022-12-20T04:05:28.546Z,57.83
2022-12-20T04:06:28.720Z,56.72
2022-12-20T04:07:28.501Z,55.99
2022-12-20T04:08:28.523Z,60.24
2022-12-20T04:09:28.536Z,58.35
2022-12-20T04:10:28.474Z,56.46
2022-12-20T04:11:28.475Z,54.01
2022-12-20T04:12:28.487Z,66.20
2022-12-20T04:13:28.447Z,57.10
2022-12-20T04:14:28.445Z,55.11
2022-12-20T04:15:28.529Z,55.09
2022-12-20T04:16:28.509Z,58.85
2022-12-20T04:17:28.463Z,54.93
2022-12-20T04:18:28.404Z,57.41
2022-12-20T04:19:28.421Z,56.35
2022-12-20T04:20:28.377Z,57.16
2022-12-20T04:21:28.382Z,61.52
2022-12-20T04:22:28.379Z,63.74
2022-12-20T04:23:29.358Z,56.64
2022-12-20T04:24:28.364Z,63.69
2022-12-20T04:25:28.346Z,66.15
2022-12-20T04:26:28.336Z,59.65
2022-12-20T04:27:28.318Z,57.60
2022-12-20T04:28:28.315Z,57.08
2022-12-20T04:29:28.303Z,57.85
2022-12-20T04:30:28.307Z,60.77
2022-12-20T04:31:28.357Z,60.90
2022-12-20T04:32:28.266Z,59.03
2022-12-20T04:33:28.246Z,66.30
2022-12-20T04:34:28.236Z,59.39
2022-12-20T04:35:28.254Z,61.19
2022-12-20T04:36:28.231Z,57.40
2022-12-20T04:37:28.221Z,59.39
2022-12-20T04:38:28.202Z,60.67
2022-12-20T04:39:28.223Z,64.22
2022-12-20T04:40:28.178Z,58.10
2022-12-20T04:41:28.186Z,59.44
2022-12-20T04:42:28.180Z,61.19
2022-12-20T04:43:28.163Z,57.12
2022-12-20T04:44:28.154Z,61.37
2022-12-20T04:45:28.137Z,64.28
2022-12-20T04:46:28.193Z,60.07
2022-12-20T04:47:28.163Z,57.77
2022-12-20T04:49:30.089Z,58.04
2022-12-20T04:50:28.108Z,59.02
2022-12-20T04:51:28.081Z,59.42
2022-12-20T04:52:28.102Z,56.28
2022-12-20T04:53:28.066Z,65.64
2022-12-20T04:54:28.061Z,59.48
2022-12-20T04:55:28.049Z,58.22
2022-12-20T04:56:28.049Z,59.32
2022-12-20T04:57:28.035Z,58.68
2022-12-20T04:58:28.008Z,62.57
2022-12-20T04:59:28.000Z,59.45
2022-12-20T05:00:27.995Z,53.82
2022-12-20T05:01:28.099Z,58.64
2022-12-20T05:02:28.153Z,67.21
2022-12-20T05:03:27.972Z,57.73
2022-12-20T05:04:31.675Z,56.76
2022-12-20T05:05:29.943Z,59.26
2022-12-20T05:06:27.960Z,66.25
2022-12-20T05:07:27.925Z,58.54
2022-12-20T05:08:27.906Z,59.06
2022-12-20T05:09:27.900Z,59.34
2022-12-20T05:10:27.884Z,68.82
2022-12-20T05:11:27.897Z,60.34
2022-12-20T05:12:27.886Z,61.03
2022-12-20T05:13:27.851Z,57.98
2022-12-20T05:14:27.830Z,59.56
2022-12-20T05:15:27.854Z,59.65
2022-12-20T05:16:27.895Z,58.91
2022-12-20T05:17:27.798Z,59.31
2022-12-20T05:18:27.830Z,57.04
2022-12-20T05:19:27.794Z,59.90
2022-12-20T05:20:27.780Z,58.25
2022-12-20T05:21:27.801Z,59.03
2022-12-20T05:22:27.775Z,64.86
2022-12-20T05:23:27.750Z,61.51
2022-12-20T05:24:27.741Z,60.46
2022-12-20T05:25:27.746Z,60.92
2022-12-20T05:26:27.768Z,56.43
2022-12-20T05:27:27.729Z,59.27
2022-12-20T05:28:27.717Z,59.76
2022-12-20T05:29:27.707Z,58.83
2022-12-20T05:30:27.700Z,60.95
2022-12-20T05:31:27.748Z,61.10
2022-12-20T05:32:27.710Z,63.93
2022-12-20T05:33:33.680Z,60.71
2022-12-20T05:34:28.681Z,59.43
2022-12-20T05:35:27.627Z,60.72
2022-12-20T05:36:27.639Z,59.07
2022-12-20T05:37:27.627Z,61.21
2022-12-20T05:38:27.615Z,64.31
2022-12-20T05:39:28.610Z,63.97
2022-12-20T05:40:27.595Z,61.26
2022-12-20T05:41:27.584Z,61.84
2022-12-20T05:42:27.571Z,61.87
2022-12-20T05:43:27.552Z,59.73
2022-12-20T05:44:27.557Z,61.69
2022-12-20T05:45:27.556Z,63.39
2022-12-20T05:46:27.559Z,61.87
2022-12-20T05:47:27.517Z,65.40
2022-12-20T05:48:27.515Z,64.27
2022-12-20T05:49:27.506Z,61.64
2022-12-20T05:50:27.509Z,66.76
2022-12-20T05:51:27.484Z,62.48
2022-12-20T05:52:27.471Z,61.39
2022-12-20T05:53:27.478Z,61.10
2022-12-20T05:54:27.460Z,61.06
2022-12-20T05:55:27.453Z,59.67
2022-12-20T05:56:27.448Z,61.13
2022-12-20T05:57:27.422Z,61.96
2022-12-20T05:58:27.429Z,61.59
2022-12-20T05:59:27.429Z,67.37
2022-12-20T06:00:27.390Z,60.64
2022-12-20T06:01:27.471Z,65.92
2022-12-20T06:02:27.462Z,60.85
2022-12-20T06:03:27.510Z,65.35
2022-12-20T06:04:27.365Z,61.58
2022-12-20T06:05:27.331Z,60.67
2022-12-20T06:06:27.344Z,60.03
2022-12-20T06:07:27.316Z,63.35
2022-12-20T06:08:27.299Z,66.54
2022-12-20T06:09:27.300Z,66.76
2022-12-20T06:10:27.313Z,63.85
2022-12-20T06:11:30.204Z,60.33
2022-12-20T06:12:27.292Z,60.46
2022-12-20T06:13:27.270Z,61.94
2022-12-20T06:14:27.256Z,60.97
2022-12-20T06:15:27.276Z,61.06
2022-12-20T06:16:27.292Z,63.67
2022-12-20T06:17:27.235Z,61.25
2022-12-20T06:18:27.252Z,60.78
2022-12-20T06:19:27.195Z,61.70
2022-12-20T06:20:27.219Z,61.39
2022-12-20T06:21:27.224Z,64.38
2022-12-20T06:22:27.205Z,63.79
2022-12-20T06:23:27.200Z,68.37
2022-12-20T06:24:27.168Z,60.93
2022-12-20T06:25:27.152Z,60.59
2022-12-20T06:26:27.157Z,61.46
2022-12-20T06:27:27.139Z,63.69
2022-12-20T06:28:27.113Z,63.55
2022-12-20T06:29:27.119Z,61.15
2022-12-20T06:30:33.362Z,59.71
2022-12-20T06:31:28.118Z,61.14
2022-12-20T06:32:27.067Z,61.53
2022-12-20T06:33:27.077Z,62.94
2022-12-20T06:34:27.058Z,60.87
2022-12-20T06:35:27.073Z,62.33
2022-12-20T06:36:27.040Z,64.06
2022-12-20T06:37:27.032Z,62.41
2022-12-20T06:38:27.020Z,67.67
2022-12-20T06:39:27.026Z,62.69
2022-12-20T06:40:26.996Z,59.83
2022-12-20T06:41:27.023Z,65.99
2022-12-20T06:42:26.977Z,65.53
2022-12-20T06:43:26.970Z,67.87
2022-12-20T06:44:26.976Z,63.86
2022-12-20T06:45:27.001Z,62.71
2022-12-20T06:46:26.989Z,62.16
2022-12-20T06:47:26.941Z,71.78
2022-12-20T06:48:26.923Z,60.74
2022-12-20T06:49:26.934Z,61.30
2022-12-20T06:50:26.925Z,61.29
2022-12-20T06:51:26.908Z,60.03
2022-12-20T06:52:26.894Z,61.40
2022-12-20T06:53:26.873Z,60.95
2022-12-20T06:54:26.852Z,60.24
2022-12-20T06:55:26.839Z,61.01
2022-12-20T06:56:26.863Z,59.90
2022-12-20T06:57:26.819Z,59.48
2022-12-20T06:58:26.816Z,60.19
2022-12-20T06:59:26.815Z,60.80
2022-12-20T07:00:26.834Z,60.26
2022-12-20T07:01:26.909Z,60.59
2022-12-20T07:02:27.902Z,58.84
2022-12-20T07:03:27.861Z,59.59
2022-12-20T07:04:26.750Z,60.70
2022-12-20T07:05:26.808Z,59.77
2022-12-20T07:06:26.741Z,60.00
2022-12-20T07:07:26.724Z,60.25
2022-12-20T07:08:26.712Z,59.96
2022-12-20T07:09:26.706Z,64.22
2022-12-20T07:10:26.704Z,61.75
2022-12-20T07:11:26.695Z,59.46
2022-12-20T07:12:26.670Z,59.37
2022-12-20T07:13:26.674Z,62.54
2022-12-20T07:14:26.682Z,59.84
2022-12-20T07:15:26.648Z,59.89
2022-12-20T07:16:26.768Z,65.74
2022-12-20T07:17:26.626Z,60.71
2022-12-20T07:18:26.616Z,60.69
2022-12-20T07:19:26.617Z,67.75
2022-12-20T07:20:26.665Z,59.70
2022-12-20T07:21:26.601Z,60.19
2022-12-20T07:22:26.614Z,62.11
2022-12-20T07:23:26.570Z,60.70
2022-12-20T07:24:26.568Z,65.65
2022-12-20T07:25:26.547Z,63.23
2022-12-20T07:26:26.537Z,61.24
2022-12-20T07:27:26.546Z,60.83
2022-12-20T07:28:26.533Z,65.82
2022-12-20T07:29:26.512Z,64.74
2022-12-20T07:30:26.493Z,61.72
2022-12-20T07:31:26.612Z,64.48
2022-12-20T07:32:26.495Z,63.29
2022-12-20T07:33:26.469Z,60.46
2022-12-20T07:34:26.506Z,60.82
2022-12-20T07:35:26.461Z,67.37
2022-12-20T07:36:26.420Z,59.78
2022-12-20T07:37:26.423Z,60.60
2022-12-20T07:38:26.428Z,59.02
2022-12-20T07:39:26.426Z,59.99
2022-12-20T07:40:26.423Z,60.24
2022-12-20T07:41:26.389Z,60.56
2022-12-20T07:42:33.556Z,63.53
2022-12-20T07:43:27.398Z,66.90
2022-12-20T07:44:26.367Z,59.85
2022-12-20T07:45:26.403Z,59.13
2022-12-20T07:46:26.373Z,60.96
2022-12-20T07:47:26.341Z,60.45
2022-12-20T07:48:26.351Z,63.22
2022-12-20T07:49:26.315Z,68.38
2022-12-20T07:50:26.329Z,61.90
2022-12-20T07:51:26.283Z,59.04
2022-12-20T07:52:26.317Z,60.50
2022-12-20T07:53:26.338Z,60.86
2022-12-20T07:54:26.279Z,59.27
2022-12-20T07:55:26.257Z,60.11
2022-12-20T07:56:26.309Z,62.10
2022-12-20T07:57:26.231Z,60.39
2022-12-20T07:58:26.223Z,59.90
2022-12-20T07:59:26.227Z,62.51
2022-12-20T08:00:26.199Z,59.52
2022-12-20T08:01:26.459Z,59.11
2022-12-20T08:02:26.343Z,60.38
2022-12-20T08:03:26.344Z,61.63
2022-12-20T08:04:26.188Z,66.72
2022-12-20T08:05:26.159Z,61.65
2022-12-20T08:06:26.148Z,61.18
2022-12-20T08:07:26.170Z,59.06
2022-12-20T08:08:26.217Z,66.74
2022-12-20T08:09:26.139Z,61.67
2022-12-20T08:10:26.187Z,60.87
2022-12-20T08:11:26.088Z,61.73
2022-12-20T08:12:26.088Z,62.72
2022-12-20T08:13:26.107Z,63.67
2022-12-20T08:14:26.086Z,64.05
2022-12-20T08:15:26.083Z,60.48
2022-12-20T08:16:26.147Z,61.57
2022-12-20T08:17:26.060Z,63.12
2022-12-20T08:18:26.032Z,62.47
2022-12-20T08:19:32.051Z,61.89
2022-12-20T08:20:27.040Z,60.45
2022-12-20T08:21:25.993Z,60.25
2022-12-20T08:22:25.996Z,67.63
2022-12-20T08:23:25.983Z,61.33
2022-12-20T08:24:26.035Z,60.81
2022-12-20T08:25:25.961Z,59.93
2022-12-20T08:26:25.979Z,60.97
2022-12-20T08:27:25.957Z,67.10
2022-12-20T08:28:25.942Z,61.27
2022-12-20T08:29:25.926Z,60.16
2022-12-20T08:30:25.946Z,60.44
2022-12-20T08:31:25.977Z,59.79
2022-12-20T08:32:25.901Z,60.84
2022-12-20T08:33:25.869Z,60.90
2022-12-20T08:34:25.870Z,60.81
2022-12-20T08:35:25.853Z,59.78
2022-12-20T08:36:26.888Z,60.39
2022-12-20T08:37:25.850Z,61.90
2022-12-20T08:38:25.829Z,62.12
2022-12-20T08:39:25.824Z,60.32
2022-12-20T08:40:25.905Z,60.96
2022-12-20T08:41:25.829Z,59.57
2022-12-20T08:42:25.795Z,61.91
2022-12-20T08:43:25.797Z,60.14
2022-12-20T08:44:25.813Z,60.94
2022-12-20T08:45:25.775Z,60.29
2022-12-20T08:46:25.809Z,60.20
2022-12-20T08:47:25.748Z,65.83
2022-12-20T08:48:25.726Z,60.37
2022-12-20T08:49:25.750Z,59.37
2022-12-20T08:50:25.802Z,62.00
2022-12-20T08:51:25.821Z,60.98
2022-12-20T08:52:25.707Z,60.04
2022-12-20T08:53:25.691Z,59.83
2022-12-20T08:54:25.677Z,59.55
2022-12-20T08:55:29.305Z,59.84
2022-12-20T08:56:25.649Z,59.54
2022-12-20T08:57:25.651Z,60.59
2022-12-20T08:58:25.645Z,59.93
2022-12-20T08:59:25.620Z,59.13
2022-12-20T09:00:25.728Z,60.35
2022-12-20T09:01:25.702Z,59.73
2022-12-20T09:02:25.782Z,60.19
2022-12-20T09:03:25.637Z,61.74
2022-12-20T09:04:25.596Z,59.98
2022-12-20T09:05:25.589Z,61.55
2022-12-20T09:06:25.564Z,60.00
2022-12-20T09:07:25.550Z,62.60
2022-12-20T09:08:25.546Z,61.63
2022-12-20T09:09:25.591Z,61.51
2022-12-20T09:10:25.562Z,60.37
2022-12-20T09:11:25.519Z,60.28
2022-12-20T09:12:25.497Z,61.11
2022-12-20T09:13:25.492Z,60.85
2022-12-20T09:14:25.494Z,65.71
2022-12-20T09:15:25.506Z,62.01
2022-12-20T09:16:25.526Z,61.07
2022-12-20T09:17:25.452Z,60.45
2022-12-20T09:18:25.427Z,60.82
2022-12-20T09:19:25.440Z,59.77
2022-12-20T09:20:57.336Z,59.48
2022-12-20T09:21:25.414Z,60.81
2022-12-20T09:22:25.407Z,62.12
2022-12-20T09:23:25.386Z,62.05
2022-12-20T09:24:25.398Z,60.20
2022-12-20T09:25:25.393Z,59.56
2022-12-20T09:26:25.376Z,60.33
2022-12-20T09:27:25.340Z,62.90
2022-12-20T09:28:26.352Z,63.57
2022-12-20T09:29:30.780Z,59.70
2022-12-20T09:30:27.349Z,61.22
2022-12-20T09:31:25.363Z,61.04
2022-12-20T09:32:25.291Z,61.66
2022-12-20T09:33:25.291Z,60.61
2022-12-20T09:34:25.286Z,60.49
2022-12-20T09:35:25.296Z,63.45
2022-12-20T09:36:25.262Z,61.15
2022-12-20T09:37:25.260Z,61.21
2022-12-20T09:38:25.231Z,67.57
2022-12-20T09:39:25.269Z,62.78
2022-12-20T09:40:25.300Z,60.37
2022-12-20T09:41:25.231Z,59.77
2022-12-20T09:42:25.218Z,61.55
2022-12-20T09:43:25.219Z,60.30
2022-12-20T09:44:25.242Z,59.38
2022-12-20T09:45:25.190Z,60.29
2022-12-20T09:46:25.193Z,60.77
2022-12-20T09:47:25.183Z,60.86
2022-12-20T09:48:25.141Z,62.26
2022-12-20T09:49:25.163Z,59.60
2022-12-20T09:50:25.212Z,58.83
2022-12-20T09:51:25.118Z,59.74
2022-12-20T09:52:25.115Z,61.29
2022-12-20T09:53:25.111Z,60.62
2022-12-20T09:54:25.085Z,61.88
2022-12-20T09:55:25.151Z,60.49
2022-12-20T09:56:25.072Z,61.49
2022-12-20T09:57:25.111Z,60.52
2022-12-20T09:58:25.040Z,68.35
2022-12-20T09:59:25.021Z,61.68
2022-12-20T10:00:25.093Z,61.09
2022-12-20T10:01:26.528Z,61.61
2022-12-20T10:02:57.157Z,60.95
2022-12-20T10:03:27.069Z,60.89
2022-12-20T10:04:25.197Z,64.68
2022-12-20T10:05:25.098Z,62.65
2022-12-20T10:06:24.938Z,62.00
2022-12-20T10:07:24.972Z,60.35
2022-12-20T10:08:24.948Z,60.52
2022-12-20T10:09:24.943Z,67.57
2022-12-20T10:10:24.939Z,61.48
2022-12-20T10:11:24.893Z,62.77
2022-12-20T10:12:24.907Z,60.13
2022-12-20T10:13:24.878Z,65.71
2022-12-20T10:14:24.888Z,61.26
2022-12-20T10:15:24.890Z,60.36
2022-12-20T10:16:24.974Z,61.74
2022-12-20T10:17:30.513Z,59.90
2022-12-20T10:18:25.858Z,59.02
2022-12-20T10:19:24.822Z,64.70
2022-12-20T10:20:24.820Z,60.16
2022-12-20T10:21:24.844Z,61.99
2022-12-20T10:22:24.846Z,60.23
2022-12-20T10:23:31.098Z,60.64
2022-12-20T10:24:25.790Z,61.22
2022-12-20T10:25:24.763Z,60.79
2022-12-20T10:26:24.764Z,60.08
2022-12-20T10:27:24.795Z,62.80
2022-12-20T10:28:24.776Z,60.51
2022-12-20T10:29:24.719Z,60.57
2022-12-20T10:30:24.742Z,61.23
2022-12-20T10:31:24.737Z,58.56
2022-12-20T10:32:24.715Z,60.61
2022-12-20T10:33:24.731Z,60.62
2022-12-20T10:34:24.697Z,59.34
2022-12-20T10:35:24.702Z,59.57
2022-12-20T10:36:24.665Z,59.71
2022-12-20T10:37:24.688Z,58.95
2022-12-20T10:38:24.693Z,58.46
2022-12-20T10:39:24.632Z,60.10
2022-12-20T10:40:34.406Z,60.65
2022-12-20T10:41:25.638Z,60.83
2022-12-20T10:42:24.610Z,60.30
2022-12-20T10:43:24.620Z,60.30
2022-12-20T10:44:24.688Z,61.90
2022-12-20T10:45:24.575Z,58.68
2022-12-20T10:46:24.608Z,60.49
2022-12-20T10:47:24.584Z,59.74
2022-12-20T10:48:24.704Z,58.95
2022-12-20T10:49:24.545Z,58.56
2022-12-20T10:50:24.547Z,59.65
2022-12-20T10:51:24.548Z,59.31
2022-12-20T10:52:24.532Z,60.28
2022-12-20T10:53:24.521Z,59.48
2022-12-20T10:54:24.496Z,61.23
2022-12-20T10:55:24.492Z,59.08
2022-12-20T10:56:24.504Z,59.81
2022-12-20T10:57:24.502Z,61.51
2022-12-20T10:58:24.490Z,60.39
2022-12-20T10:59:24.485Z,59.62
2022-12-20T11:00:24.440Z,59.81
2022-12-20T11:01:24.470Z,60.95
2022-12-20T11:02:25.736Z,62.64
2022-12-20T11:03:24.590Z,61.47
2022-12-20T11:04:24.431Z,58.98
2022-12-20T11:05:24.397Z,60.66
2022-12-20T11:06:24.373Z,59.18
2022-12-20T11:07:24.403Z,58.78
2022-12-20T11:08:37.499Z,58.01
2022-12-20T11:09:26.336Z,59.93
2022-12-20T11:10:24.380Z,60.54
2022-12-20T11:11:24.325Z,58.43
2022-12-20T11:12:24.312Z,58.49
2022-12-20T11:13:24.347Z,59.80
2022-12-20T11:14:24.292Z,60.18
2022-12-20T11:15:33.571Z,58.60
2022-12-20T11:16:25.401Z,59.25
2022-12-20T11:17:24.257Z,59.89
2022-12-20T11:18:24.261Z,62.25
2022-12-20T11:19:24.232Z,58.56
2022-12-20T11:20:24.223Z,58.68
2022-12-20T11:21:27.850Z,58.61
2022-12-20T11:22:25.213Z,59.20
2022-12-20T11:23:24.361Z,58.74
2022-12-20T11:24:24.192Z,59.53
2022-12-20T11:25:24.186Z,58.60
2022-12-20T11:26:24.169Z,58.56
2022-12-20T11:27:24.172Z,59.25
2022-12-20T11:28:24.148Z,59.40
2022-12-20T11:29:24.151Z,59.86
2022-12-20T11:30:24.145Z,59.05
2022-12-20T11:31:24.223Z,59.44
2022-12-20T11:32:24.084Z,60.71
2022-12-20T11:33:24.093Z,59.28
2022-12-20T11:34:24.096Z,59.65
2022-12-20T11:35:24.071Z,59.09
2022-12-20T11:36:24.077Z,59.71
2022-12-20T11:37:24.067Z,59.64
2022-12-20T11:38:24.074Z,60.21
2022-12-20T11:39:24.028Z,60.21
2022-12-20T11:40:24.029Z,59.98
2022-12-20T11:41:24.001Z,60.22
2022-12-20T11:42:24.129Z,61.78
2022-12-20T11:43:23.995Z,59.99
2022-12-20T11:44:26.327Z,61.81
2022-12-20T11:45:24.967Z,60.30
2022-12-20T11:46:24.018Z,60.57
2022-12-20T11:47:23.973Z,61.67
2022-12-20T11:48:23.951Z,58.94
2022-12-20T11:49:23.940Z,60.50
2022-12-20T11:50:23.915Z,61.77
2022-12-20T11:51:26.704Z,60.69
2022-12-20T11:52:24.922Z,60.59
2022-12-20T11:53:23.901Z,62.65
2022-12-20T11:54:23.891Z,60.52
2022-12-20T11:55:23.872Z,57.90
2022-12-20T11:56:23.870Z,61.03
2022-12-20T11:57:23.849Z,62.79
2022-12-20T11:58:23.905Z,59.32
2022-12-20T11:59:23.920Z,58.62
2022-12-20T12:00:23.863Z,61.32
2022-12-20T12:01:23.879Z,60.27
2022-12-20T12:02:23.924Z,60.93
2022-12-20T12:03:23.859Z,60.75
2022-12-20T12:04:23.820Z,59.59
2022-12-20T12:05:23.822Z,59.65
2022-12-20T12:06:23.793Z,60.34
2022-12-20T12:07:23.753Z,60.59
2022-12-20T12:08:23.752Z,61.37
2022-12-20T12:09:23.739Z,60.25
2022-12-20T12:10:23.723Z,60.55
2022-12-20T12:12:04.605Z,60.71
2022-12-20T12:12:25.698Z,59.48
2022-12-20T12:13:23.789Z,60.22
2022-12-20T12:14:23.705Z,60.42
2022-12-20T12:15:23.650Z,60.38
2022-12-20T12:16:23.697Z,60.00
2022-12-20T12:17:23.690Z,60.48
2022-12-20T12:18:23.635Z,60.88
2022-12-20T12:19:23.632Z,58.80
2022-12-20T12:20:23.639Z,60.36
2022-12-20T12:21:23.645Z,59.06
2022-12-20T12:22:23.604Z,61.31
2022-12-20T12:23:23.594Z,60.81
2022-12-20T12:24:23.600Z,64.10
2022-12-20T12:25:23.586Z,61.88
2022-12-20T12:26:23.568Z,60.04
2022-12-20T12:27:23.552Z,66.16
2022-12-20T12:28:23.561Z,60.73
2022-12-20T12:29:23.545Z,59.06
2022-12-20T12:30:23.559Z,59.76
2022-12-20T12:31:23.553Z,59.93
2022-12-20T12:32:23.483Z,61.25
2022-12-20T12:33:25.457Z,60.35
2022-12-20T12:34:24.485Z,60.02
2022-12-20T12:35:23.470Z,67.52
2022-12-20T12:36:23.453Z,60.19
2022-12-20T12:37:23.452Z,60.45
2022-12-20T12:38:23.434Z,59.52
2022-12-20T12:39:23.424Z,60.38
2022-12-20T12:40:23.438Z,62.45
2022-12-20T12:41:23.415Z,61.21
2022-12-20T12:42:23.391Z,64.66
2022-12-20T12:43:23.373Z,60.42
2022-12-20T12:44:23.383Z,61.90
2022-12-20T12:45:23.367Z,61.39
2022-12-20T12:46:23.428Z,59.92
2022-12-20T12:47:23.343Z,61.34
2022-12-20T12:48:23.342Z,64.22
2022-12-20T12:49:23.356Z,62.63
2022-12-20T12:50:23.344Z,59.75
2022-12-20T12:51:23.327Z,60.57
2022-12-20T12:52:23.314Z,60.27
2022-12-20T12:53:23.334Z,59.38